Flight Track Log - Related Links

Times and Time Zones

All times are in EDT time to prevent confusion due to time zone crossing. See the AWE1940 flight status page for this flight to view local times or setup timezone preferences in your user account.

Time Position Orientation Groundspeed Altitude Reporting Facility
EDT Latitude Longitude Course Direction KTS MPH feet Rate Location/Type
Thu 06:38:44 PM 29.9528 -95.3375 90° East 241 277 900  Level Houston Center
Thu 06:39:45 PM 29.9142 -95.2842 130° Southeast 218 251 2,800 1,723 Climbing Houston Center
Thu 06:40:18 PM 29.8992 -95.2625 129° Southeast 224 258 3,600 2,375 Climbing Houston Center
Thu 06:41:00 PM 29.9834 -94.9650 90° East  Level FlightAware Approximate
Thu 06:41:21 PM 29.8467 -95.1756 125° Southeast 273 314 6,600  Level Houston Center
Thu 06:42:00 PM 29.9833 -94.8422 90° East  Level FlightAware Approximate
Thu 06:42:23 PM 29.8417 -95.0861 94° East 283 326 9,300  Level Houston Center
Thu 06:43:00 PM 29.9834 -94.7195 90° East  Level FlightAware Approximate
Thu 06:43:25 PM 29.8589 -94.9928 78° East 295 339 11,100  Level Houston Center
Thu 06:44:00 PM 29.9833 -94.5925 90° East  Level FlightAware Approximate
Thu 06:44:27 PM 29.8808 -94.8833 77° East 345 397 12,700  Level Houston Center
Thu 06:45:29 PM 29.9061 -94.7692 76° East 361 415 14,900 2,081 Climbing Houston Center
Thu 06:46:31 PM 29.9294 -94.6519 77° East 371 427 17,000 1,935 Climbing Houston Center
Thu 06:47:33 PM 29.9528 -94.5308 77° East 383 441 18,900 1,839 Climbing Houston Center
Thu 06:48:35 PM 29.9797 -94.3864 78° East 392 451 20,800 1,694 Climbing Houston Center
Thu 06:49:37 PM 30.0036 -94.2611 78° East 399 459 22,400 1,500 Climbing Houston Center
Thu 06:50:39 PM 30.0189 -94.1283 82° East 413 475 23,900 1,392 Climbing Houston Center
Thu 06:51:42 PM 30.0350 -93.9967 82° East 416 479 25,300 1,392 Climbing Houston Center
Thu 06:52:44 PM 30.0544 -93.8353 82° East 423 487 26,800 1,355 Climbing Houston Center
Thu 06:53:46 PM 30.0714 -93.6975 82° East 433 498 28,100 1,306 Climbing Houston Center
Thu 06:54:48 PM 30.0872 -93.5617 82° East 434 499 29,500 1,403 Climbing Houston Center
Thu 06:55:50 PM 30.1025 -93.4258 83° East 433 498 31,000 1,355 Climbing Houston Center
Thu 06:56:52 PM 30.1219 -93.2669 82° East 424 488 32,300 968 Climbing Houston Center
Thu 06:57:54 PM 30.1383 -93.1331 82° East 424 488 33,000 290 Climbing Houston Center
Thu 06:58:56 PM 30.1908 -93.0150 63° Northeast 424 488 32,900  Descending Houston Center
Thu 06:59:58 PM 30.2531 -92.9019 57° Northeast 421 484 33,000 48 Climbing Houston Center
Thu 07:01:00 PM 30.3150 -92.7881 58° Northeast 420 483 33,000  Level Houston Center
Thu 07:02:03 PM 30.3894 -92.6519 58° Northeast 420 483 33,000  Level Houston Center
Thu 07:03:05 PM 30.4511 -92.5386 58° Northeast 418 481 33,000  Level Houston Center
Thu 07:04:07 PM 30.5103 -92.4236 59° Northeast 414 476 33,000  Level Houston Center
Thu 07:05:09 PM 30.5719 -92.3108 58° Northeast 417 480 33,000  Level Houston Center
Thu 07:06:11 PM 30.6339 -92.1942 58° Northeast 424 488 33,000  Level Houston Center
Thu 07:07:13 PM 30.7083 -92.0567 58° Northeast 423 487 33,000  Level Houston Center
Thu 07:08:15 PM 30.7706 -91.9411 58° Northeast 423 487 33,000  Level Houston Center
Thu 07:09:17 PM 30.8331 -91.8250 58° Northeast 426 490 33,000  Level Houston Center
Thu 07:10:19 PM 30.8958 -91.7092 58° Northeast 426 490 33,000  Level Houston Center
Thu 07:11:21 PM 30.9569 -91.5925 59° Northeast 425 489 33,000  Level Houston Center
Thu 07:12:23 PM 31.0306 -91.4525 58° Northeast 424 488 33,000  Level Houston Center
Thu 07:13:25 PM 31.0917 -91.3378 58° Northeast 426 490 33,000  Level Houston Center
Thu 07:14:28 PM 31.1539 -91.2206 58° Northeast 424 488 33,000  Level Houston Center
Thu 07:15:30 PM 31.2136 -91.1025 59° Northeast 424 488 33,000  Level Houston Center
Thu 07:16:32 PM 31.2742 -90.9856 59° Northeast 421 484 33,000  Level Houston Center
Thu 07:17:34 PM 31.3356 -90.8689 58° Northeast 421 484 33,000  Level Houston Center
Thu 07:18:36 PM 31.4094 -90.7261 59° Northeast 425 489 33,000  Level Houston Center
Thu 07:19:38 PM 31.4706 -90.6078 59° Northeast 424 488 33,000  Level Houston Center
Thu 07:20:40 PM 31.5311 -90.4894 59° Northeast 424 488 33,000  Level Houston Center
Thu 07:21:42 PM 31.5919 -90.3722 59° Northeast 421 484 33,000  Level Houston Center
Thu 07:22:44 PM 31.6517 -90.2539 59° Northeast 421 484 33,000  Level Houston Center
Thu 07:23:46 PM 31.7111 -90.1369 59° Northeast 418 481 33,000  Level Houston Center
Thu 07:24:48 PM 31.7725 -90.0189 59° Northeast 421 484 33,000  Level Houston Center
Thu 07:25:50 PM 31.8431 -89.8786 59° Northeast 416 479 33,000  Level Houston Center
Thu 07:26:51 PM 31.8897 -89.7506 67° East 414 476 33,000  Level Memphis Center
Thu 07:27:51 PM 31.9286 -89.6378 68° East 414 476 33,000  Level Memphis Center
Thu 07:28:51 PM 31.9739 -89.5125 67° East 414 476 33,000  Level Memphis Center
Thu 07:29:51 PM 32.0189 -89.3847 67° East 414 476 33,000  Level Memphis Center
Thu 07:30:50 PM 32.0636 -89.2567 68° East 414 476 33,000  Level Memphis Center
Thu 07:31:51 PM 32.1083 -89.1311 67° East 414 476 33,000  Level Memphis Center
Thu 07:32:51 PM 32.1531 -89.0053 67° East 414 476 33,000  Level Memphis Center
Thu 07:33:51 PM 32.1975 -88.8769 68° East 414 476 33,000  Level Memphis Center
Thu 07:34:51 PM 32.2419 -88.7486 68° East 414 476 33,000  Level Memphis Center
Thu 07:36:33 PM 32.3206 -88.5242 67° East 414 476 33,000  Level Atlanta Center
Thu 07:37:33 PM 32.3647 -88.3961 68° East 414 476 33,000  Level Atlanta Center
Thu 07:38:33 PM 32.4089 -88.2656 68° East 414 476 33,000  Level Atlanta Center
Thu 07:39:33 PM 32.4508 -88.1394 68° East 414 476 33,000  Level Atlanta Center
Thu 07:40:33 PM 32.4969 -88.0061 68° East 420 483 33,000  Level Atlanta Center
Thu 07:41:33 PM 32.5386 -87.8725 70° East 426 490 33,000  Level Atlanta Center
Thu 07:42:33 PM 32.5822 -87.7414 68° East 426 490 33,000  Level Atlanta Center
Thu 07:43:33 PM 32.6258 -87.6100 68° East 426 490 33,000  Level Atlanta Center
Thu 07:44:33 PM 32.6692 -87.4786 69° East 426 490 33,000  Level Atlanta Center
Thu 07:45:33 PM 32.7103 -87.3494 69° East 426 490 33,000  Level Atlanta Center
Thu 07:46:33 PM 32.7533 -87.2200 68° East 426 490 33,000  Level Atlanta Center
Thu 07:47:33 PM 32.8006 -87.0858 67° East 426 490 33,000  Level Atlanta Center
Thu 07:48:33 PM 32.8369 -86.9611 71° East 426 490 33,000  Level Atlanta Center
Thu 07:49:33 PM 32.8819 -86.8289 68° East 426 490 33,000  Level Atlanta Center
Thu 07:50:33 PM 32.9328 -86.7019 64° Northeast 426 490 33,000  Level Atlanta Center
Thu 07:51:33 PM 32.9958 -86.5825 58° Northeast 421 484 33,000  Level Atlanta Center
Thu 07:52:33 PM 33.0631 -86.4581 57° Northeast 421 484 33,000  Level Atlanta Center
Thu 07:53:33 PM 33.1053 -86.3228 70° East 427 491 33,000  Level Atlanta Center
Thu 07:54:33 PM 33.1450 -86.1897 70° East 427 491 33,000  Level Atlanta Center
Thu 07:55:33 PM 33.1831 -86.0517 72° East 427 491 33,000  Level Atlanta Center
Thu 07:56:33 PM 33.2228 -85.9136 71° East 427 491 33,000  Level Atlanta Center
Thu 07:57:33 PM 33.2603 -85.7778 72° East 434 499 33,000  Level Atlanta Center
Thu 07:58:33 PM 33.2997 -85.6419 71° East 428 493 33,000  Level Atlanta Center
Thu 07:59:33 PM 33.3386 -85.5158 70° East 410 472 33,000  Level Atlanta Center
Thu 08:00:33 PM 33.3758 -85.3772 72° East 416 479 33,000  Level Atlanta Center
Thu 08:01:33 PM 33.4106 -85.2383 73° East 424 488 33,000  Level Atlanta Center
Thu 08:02:33 PM 33.4494 -85.1019 71° East 433 498 33,000  Level Atlanta Center
Thu 08:03:33 PM 33.4861 -84.9628 72° East 433 498 33,000 -150 Level Atlanta Center
Thu 08:04:33 PM 33.5247 -84.8236 72° East 433 498 32,700 -500 Descending Atlanta Center
Thu 08:05:33 PM 33.5589 -84.6894 73° East 433 498 32,000 -350 Descending Atlanta Center
Thu 08:06:33 PM 33.5906 -84.5675 73° East 428 493 32,000 -200 Level Atlanta Center
Thu 08:07:33 PM 33.6308 -84.4206 72° East 423 487 31,600 -500 Descending Atlanta Center
Thu 08:08:33 PM 33.6708 -84.2808 71° East 423 487 31,000 -300 Descending Atlanta Center
Thu 08:09:33 PM 33.7108 -84.1411 71° East 431 496 31,000  Level Atlanta Center
Thu 08:10:33 PM 33.7503 -83.9989 72° East 442 509 31,000  Level Atlanta Center
Thu 08:11:33 PM 33.7878 -83.8664 71° East 434 499 31,000  Level Atlanta Center
Thu 08:12:33 PM 33.8272 -83.7261 71° East 434 499 31,000 -350 Level Atlanta Center
Thu 08:13:33 PM 33.8603 -83.6036 72° East 429 494 30,300 -800 Descending Atlanta Center
Thu 08:14:33 PM 33.8972 -83.4631 72° East 429 494 29,400 -900 Descending Atlanta Center
Thu 08:15:33 PM 33.9383 -83.3253 70° East 435 501 28,500 -1,000 Descending Atlanta Center
Thu 08:16:33 PM 33.9750 -83.1847 73° East 435 501 27,400 -1,050 Descending Atlanta Center
Thu 08:17:33 PM 34.0136 -83.0414 72° East 440 506 26,400 -1,000 Descending Atlanta Center
Thu 08:18:33 PM 34.0500 -82.9056 72° East 435 501 25,400 -1,000 Descending Atlanta Center
Thu 08:19:33 PM 34.1008 -82.7794 64° Northeast 421 484 24,400 -700 Descending Atlanta Center
Thu 08:20:33 PM 34.1558 -82.6556 62° Northeast 416 479 24,000 -200 Descending Atlanta Center
Thu 08:21:33 PM 34.2044 -82.5342 64° Northeast 385 443 24,000 -250 Level Atlanta Center
Thu 08:22:33 PM 34.2492 -82.4281 63° Northeast 364 419 23,500 -750 Descending Atlanta Center
Thu 08:23:33 PM 34.2894 -82.3242 65° Northeast 345 397 22,500 -1,000 Descending Atlanta Center
Thu 08:24:33 PM 34.3297 -82.2200 65° Northeast 345 397 21,500 -1,100 Descending Atlanta Center
Thu 08:25:33 PM 34.3700 -82.1186 64° Northeast 340 391 20,300 -1,400 Descending Atlanta Center
Thu 08:26:33 PM 34.4122 -82.0219 62° Northeast 335 386 18,700 -1,500 Descending Atlanta Center
Thu 08:27:33 PM 34.4481 -81.9228 66° East 321 369 17,300 -850 Descending Atlanta Center
Thu 08:28:33 PM 34.4778 -81.8264 69° East 315 362 17,000 -550 Descending Atlanta Center
Thu 08:29:33 PM 34.4036 -81.7756 151° Southeast 221 254 16,200 -900 Descending Atlanta Center
Thu 08:30:33 PM 34.3425 -81.8500 225° Southwest 186 214 15,200 -600 Descending Atlanta Center
Thu 08:31:33 PM 34.2853 -81.9219 226° Southwest 236 272 15,000 -100 Descending Atlanta Center
Thu 08:32:33 PM 34.2322 -81.9886 226° Southwest 280 322 15,000  Level Atlanta Center
Thu 08:33:33 PM 34.2064 -82.0719 249° West 285 328 15,000  Level Atlanta Center
Thu 08:34:33 PM 34.2656 -82.1183 327° Northwest 195 224 15,000  Level Atlanta Center
Thu 08:35:33 PM 34.3272 -82.0567 40° Northeast 149 171 15,000  Level Atlanta Center
Thu 08:36:33 PM 34.3864 -81.9822 46° Northeast 216 249 15,000  Level Atlanta Center
Thu 08:37:33 PM 34.4436 -81.9128 45° Northeast 257 296 15,000  Level Atlanta Center
Thu 08:38:33 PM 34.4861 -81.8286 58° Northeast 278 320 15,000  Level Atlanta Center
Thu 08:39:33 PM 34.4203 -81.7700 144° Southeast 222 255 15,000  Level Atlanta Center
Thu 08:40:33 PM 34.3589 -81.8344 221° Southwest 148 170 15,000 -400 Level Atlanta Center
Thu 08:41:33 PM 34.3039 -81.9064 227° Southwest 224 258 14,200 -875 Descending Atlanta Center
Thu 08:43:00 PM 34.4148 -81.7912 41° Northeast  Level Estimated
Thu 08:44:33 PM 34.3289 -82.1597 41° Northeast 264 304 11,500  Level Atlanta Center
Thu 08:45:33 PM 34.3969 -82.1181 27° Northeast 180 207 11,000 -167 Descending Atlanta Center
Thu 08:47:33 PM 34.4964 -81.9494 54° Northeast 251 289 11,000  Level Atlanta Center
Thu 08:48:33 PM 34.5431 -81.8650 56° Northeast 287 330 11,000  Level Atlanta Center
Thu 08:49:33 PM 34.5917 -81.7831 54° Northeast 298 343 11,000  Level Atlanta Center
Thu 08:50:33 PM 34.6528 -81.7006 48° Northeast 298 343 11,000  Level Atlanta Center
Thu 08:51:33 PM 34.7053 -81.6183 52° Northeast 298 343 11,000  Level Atlanta Center
Thu 08:52:07 PM 34.7336 -81.5744 52° Northeast 301 346 11,000  Level Atlanta Center
Thu 08:53:08 PM 34.7800 -81.4872 57° Northeast 306 352 11,000 -517 Level Atlanta Center
Thu 08:54:03 PM 34.8114 -81.4000 66° East 314 361 10,000 -1,129 Descending Atlanta Center
Thu 08:54:33 PM 34.8231 -81.3567 72° East 298 343 9,400 -1,377 Descending Atlanta Center
Thu 08:55:04 PM 34.8303 -81.3008 81° East 300 345 8,600 -1,582 Descending Atlanta Center
Thu 08:56:04 PM 34.8592 -81.1986 71° East 294 338 7,000 -1,096 Descending Atlanta Center
Thu 08:56:59 PM 34.8864 -81.1142 69° East 290 334 6,500 -809 Descending Atlanta Center
Thu 08:57:33 PM 34.9000 -81.0756 67° East 287 330 5,800 -1,075 Descending Atlanta Center
Thu 08:58:06 PM 34.9194 -81.0192 67° East 282 325 5,300 -511 Descending Atlanta Center
Thu 08:59:07 PM 34.9578 -80.9569 53° Northeast 243 280 5,000 -590 Descending Atlanta Center
Thu 09:00:08 PM 35.0161 -80.9522 North 199 229 4,100 -885 Descending Atlanta Center

Login

Don't have an account? Register now (free) for customized features, flight alerts, and more!